createdAt,value
2019-02-19T00:01:15.100Z,18.52
2019-02-19T00:03:45.238Z,13.43
2019-02-19T00:06:15.836Z,13.45
2019-02-19T00:08:45.335Z,13.63
2019-02-19T00:11:15.416Z,9.40
2019-02-19T00:13:45.157Z,16.67
2019-02-19T00:16:16.262Z,9.50
2019-02-19T00:18:46.721Z,13.53
2019-02-19T00:21:16.848Z,9.43
2019-02-19T00:23:46.350Z,9.03
2019-02-19T00:26:18.497Z,10.32
2019-02-19T00:28:48.005Z,10.17
2019-02-19T00:31:18.114Z,10.05
2019-02-19T00:33:47.533Z,10.50
2019-02-19T00:36:22.314Z,8.98
2019-02-19T00:38:53.243Z,12.50
2019-02-19T00:41:23.468Z,18.92
2019-02-19T00:43:53.698Z,9.80
2019-02-19T00:46:23.071Z,8.63
2019-02-19T00:48:52.556Z,11.83
2019-02-19T00:51:22.407Z,11.20
2019-02-19T00:53:52.666Z,11.10
2019-02-19T00:56:22.669Z,9.90
2019-02-19T00:58:52.097Z,13.62
2019-02-19T01:01:22.531Z,12.80
2019-02-19T01:03:56.410Z,14.53
2019-02-19T01:06:26.420Z,12.10
2019-02-19T01:08:57.610Z,11.40
2019-02-19T01:11:27.096Z,9.83
2019-02-19T01:13:57.059Z,9.77
2019-02-19T01:16:26.672Z,10.35
2019-02-19T01:18:56.754Z,13.13
2019-02-19T01:21:30.906Z,11.10
2019-02-19T01:24:04.133Z,14.43
2019-02-19T01:26:33.672Z,12.35
2019-02-19T01:29:06.798Z,14.25
2019-02-19T01:31:38.080Z,9.85
2019-02-19T01:34:07.592Z,10.27
2019-02-19T01:36:37.681Z,9.60
2019-02-19T01:39:07.388Z,10.95
2019-02-19T01:41:38.756Z,18.40
2019-02-19T01:44:08.389Z,9.48
2019-02-19T01:46:37.985Z,16.07
2019-02-19T01:49:09.137Z,8.93
2019-02-19T01:51:39.103Z,20.80
2019-02-19T01:54:11.094Z,11.23
2019-02-19T01:56:40.616Z,7.27
2019-02-19T01:59:10.044Z,7.47
2019-02-19T02:01:39.717Z,11.10
2019-02-19T02:04:09.113Z,10.75
2019-02-19T02:06:39.577Z,12.50
2019-02-19T02:09:09.052Z,11.00
2019-02-19T02:11:38.505Z,13.23
2019-02-19T02:14:08.424Z,11.17
2019-02-19T02:16:37.821Z,7.77
2019-02-19T02:19:07.597Z,7.63
2019-02-19T02:21:37.007Z,10.33
2019-02-19T02:24:06.784Z,10.40
2019-02-19T02:26:36.567Z,6.85
2019-02-19T02:29:06.233Z,7.10
2019-02-19T02:31:36.039Z,9.50
2019-02-19T02:34:06.715Z,7.73
2019-02-19T02:36:40.244Z,8.35
2019-02-19T02:39:10.727Z,9.10
2019-02-19T02:41:40.036Z,7.70
2019-02-19T02:44:09.521Z,8.20
2019-02-19T02:46:39.724Z,10.00
2019-02-19T02:49:12.168Z,10.90
2019-02-19T02:51:42.292Z,6.17
2019-02-19T02:54:12.186Z,8.73
2019-02-19T02:56:41.562Z,9.90
2019-02-19T02:59:10.988Z,10.37
2019-02-19T03:01:40.368Z,8.97
2019-02-19T03:04:11.922Z,9.30
2019-02-19T03:07:07.006Z,15.20
2019-02-19T03:09:36.389Z,9.53
2019-02-19T03:12:06.211Z,12.80
2019-02-19T03:14:37.716Z,13.27
2019-02-19T03:17:10.233Z,28.00
2019-02-19T03:19:40.871Z,9.60
2019-02-19T03:22:10.781Z,14.53
2019-02-19T03:24:44.314Z,9.03
2019-02-19T03:27:14.117Z,8.73
2019-02-19T03:29:46.014Z,13.27
2019-02-19T03:32:16.820Z,15.98
2019-02-19T03:34:46.211Z,11.93
2019-02-19T03:37:17.450Z,14.45
2019-02-19T03:39:48.197Z,21.73
2019-02-19T03:42:18.179Z,18.27
2019-02-19T03:44:49.213Z,12.97
2019-02-19T03:47:21.541Z,13.33
2019-02-19T03:49:50.934Z,17.73
2019-02-19T03:52:24.908Z,13.10
2019-02-19T03:55:13.358Z,18.97
2019-02-19T03:57:42.803Z,13.90
2019-02-19T04:00:16.584Z,14.20
2019-02-19T04:02:46.979Z,9.33
2019-02-19T04:05:18.920Z,16.58
2019-02-19T04:07:50.484Z,18.10
2019-02-19T04:10:23.255Z,13.08
2019-02-19T04:12:52.785Z,12.40
2019-02-19T04:15:22.196Z,12.10
2019-02-19T04:17:55.473Z,17.33
2019-02-19T04:20:29.719Z,14.43
2019-02-19T04:23:00.279Z,16.73
2019-02-19T04:25:29.669Z,18.42
2019-02-19T04:27:59.844Z,18.42
2019-02-19T04:30:30.872Z,12.60
2019-02-19T04:33:04.208Z,14.20
2019-02-19T04:35:35.151Z,13.33
2019-02-19T04:38:04.712Z,14.40
2019-02-19T04:40:34.094Z,22.17
2019-02-19T04:43:05.047Z,19.67
2019-02-19T04:45:39.873Z,22.02
2019-02-19T04:48:09.700Z,20.33
2019-02-19T04:50:41.491Z,17.53
2019-02-19T04:53:12.334Z,19.57
2019-02-19T04:55:46.463Z,18.70
2019-02-19T04:58:18.045Z,23.32
2019-02-19T05:00:47.449Z,17.70
2019-02-19T05:03:20.594Z,15.15
2019-02-19T05:05:50.581Z,19.17
2019-02-19T05:08:20.945Z,25.83
2019-02-19T05:10:50.345Z,19.67
2019-02-19T05:13:27.580Z,24.53
2019-02-19T05:15:56.960Z,22.53
2019-02-19T05:18:27.487Z,33.73
2019-02-19T05:20:58.214Z,20.47
2019-02-19T05:23:28.146Z,26.87
2019-02-19T05:25:59.282Z,24.37
2019-02-19T05:28:29.465Z,23.13
2019-02-19T05:30:58.893Z,18.13
2019-02-19T05:33:28.710Z,21.10
2019-02-19T05:35:58.164Z,26.17
2019-02-19T05:38:27.566Z,15.10
2019-02-19T05:40:56.928Z,19.23
2019-02-19T05:43:26.692Z,19.20
2019-02-19T05:45:56.169Z,23.27
2019-02-19T05:48:25.637Z,19.73
2019-02-19T05:50:55.926Z,35.23
2019-02-19T05:53:26.353Z,31.00
2019-02-19T05:55:55.732Z,25.47
2019-02-19T05:58:25.156Z,42.25
2019-02-19T06:00:55.425Z,36.73
2019-02-19T06:03:24.849Z,21.67
2019-02-19T06:05:54.299Z,25.33
2019-02-19T06:08:24.125Z,22.30
2019-02-19T06:10:53.507Z,35.73
2019-02-19T06:13:22.982Z,26.90
2019-02-19T06:15:55.350Z,26.00
2019-02-19T06:18:24.751Z,19.53
2019-02-19T06:20:54.256Z,23.80
2019-02-19T06:23:25.342Z,32.07
2019-02-19T06:25:54.709Z,25.60
2019-02-19T06:28:30.243Z,34.53
2019-02-19T06:31:00.786Z,62.40
2019-02-19T06:33:35.500Z,61.58
2019-02-19T06:36:04.837Z,55.53
2019-02-19T06:38:34.208Z,41.50
2019-02-19T06:41:22.693Z,27.30
2019-02-19T06:43:52.628Z,28.40
2019-02-19T06:46:22.949Z,27.07
2019-02-19T06:48:52.527Z,30.50
2019-02-19T06:51:22.120Z,26.12
2019-02-19T06:53:51.865Z,26.87
2019-02-19T06:56:21.377Z,30.35
2019-02-19T06:58:52.276Z,23.83
2019-02-19T07:01:42.692Z,25.27
2019-02-19T07:04:19.030Z,25.65
2019-02-19T07:06:48.773Z,24.67
2019-02-19T07:09:19.509Z,35.05
2019-02-19T07:11:48.893Z,30.33
2019-02-19T07:14:18.797Z,24.30
2019-02-19T07:16:52.346Z,21.67
2019-02-19T07:19:21.870Z,29.43
2019-02-19T07:21:51.575Z,36.13
2019-02-19T07:24:25.219Z,30.17
2019-02-19T07:26:54.756Z,31.93
2019-02-19T07:29:25.522Z,30.23
2019-02-19T07:31:55.429Z,37.67
2019-02-19T07:34:27.974Z,25.20
2019-02-19T07:36:58.126Z,22.17
2019-02-19T07:39:35.538Z,22.93
2019-02-19T07:42:07.421Z,28.27
2019-02-19T07:44:38.930Z,31.50
2019-02-19T07:47:10.471Z,26.70
2019-02-19T07:49:43.962Z,20.87
2019-02-19T07:52:14.244Z,31.03
2019-02-19T07:54:45.145Z,22.93
2019-02-19T07:57:15.938Z,25.12
2019-02-19T07:59:45.246Z,19.67
2019-02-19T08:02:16.233Z,22.55
2019-02-19T08:04:45.626Z,32.77
2019-02-19T08:07:15.320Z,20.02
2019-02-19T08:09:45.106Z,19.63
2019-02-19T08:12:19.649Z,16.27
2019-02-19T08:14:53.610Z,16.87
2019-02-19T08:17:32.908Z,22.03
2019-02-19T08:19:56.861Z,28.40
2019-02-19T08:22:26.618Z,22.07
2019-02-19T08:24:56.047Z,22.03
2019-02-19T08:27:28.513Z,21.17
2019-02-19T08:29:57.836Z,23.17
2019-02-19T08:32:28.763Z,27.93
2019-02-19T08:34:58.108Z,33.05
2019-02-19T08:37:27.528Z,24.90
2019-02-19T08:39:57.508Z,29.83
2019-02-19T08:42:27.443Z,22.50
2019-02-19T08:45:02.991Z,26.47
2019-02-19T08:47:31.650Z,24.33
2019-02-19T08:50:03.439Z,20.35
2019-02-19T08:52:33.472Z,20.70
2019-02-19T08:55:02.921Z,18.33
2019-02-19T08:57:34.145Z,20.07
2019-02-19T09:00:03.534Z,29.27
2019-02-19T09:02:33.510Z,23.20
2019-02-19T09:05:03.905Z,27.23
2019-02-19T09:07:33.259Z,28.90
2019-02-19T09:10:03.713Z,19.07
2019-02-19T09:12:35.850Z,20.10
2019-02-19T09:15:07.066Z,33.87
2019-02-19T09:17:36.962Z,28.03
2019-02-19T09:20:08.716Z,25.90
2019-02-19T09:22:39.333Z,26.40
2019-02-19T09:25:09.913Z,23.53
2019-02-19T09:27:39.331Z,23.73
2019-02-19T09:30:10.664Z,14.90
2019-02-19T09:32:41.146Z,17.57
2019-02-19T09:35:11.347Z,21.57
2019-02-19T09:37:45.116Z,15.73
2019-02-19T09:40:15.427Z,24.85
2019-02-19T09:42:44.808Z,22.60
2019-02-19T09:45:14.193Z,17.15
2019-02-19T09:47:44.142Z,20.43
2019-02-19T09:50:13.537Z,17.62
2019-02-19T09:52:43.043Z,12.43
2019-02-19T09:55:12.533Z,13.65
2019-02-19T09:57:41.941Z,11.40
2019-02-19T10:00:12.364Z,16.50
2019-02-19T10:02:44.027Z,30.47
2019-02-19T10:05:13.820Z,24.70
2019-02-19T10:07:45.987Z,15.20
2019-02-19T10:10:23.639Z,21.16
2019-02-19T10:12:53.058Z,22.33
2019-02-19T10:15:27.201Z,14.97
2019-02-19T10:18:09.888Z,17.07
2019-02-19T10:20:32.461Z,11.20
2019-02-19T10:23:02.073Z,20.50
2019-02-19T10:25:36.929Z,11.33
2019-02-19T10:28:08.527Z,11.60
2019-02-19T10:30:43.745Z,12.37
2019-02-19T10:33:13.068Z,21.63
2019-02-19T10:35:46.853Z,18.50
2019-02-19T10:38:22.964Z,13.70
2019-02-19T10:40:53.214Z,15.80
2019-02-19T10:43:24.815Z,11.97
2019-02-19T10:45:54.243Z,25.00
2019-02-19T10:48:28.729Z,14.87
2019-02-19T10:50:59.550Z,19.77
2019-02-19T10:53:29.453Z,16.43
2019-02-19T10:55:59.297Z,24.80
2019-02-19T10:58:28.718Z,20.60
2019-02-19T11:00:58.096Z,14.03
2019-02-19T11:03:31.629Z,17.50
2019-02-19T11:06:01.212Z,12.90
2019-02-19T11:08:32.024Z,12.77
2019-02-19T11:11:02.950Z,9.90
2019-02-19T11:13:34.667Z,16.33
2019-02-19T11:16:04.068Z,13.32
2019-02-19T11:18:33.559Z,31.33
2019-02-19T11:21:02.964Z,15.67
2019-02-19T11:23:35.976Z,10.07
2019-02-19T11:26:07.522Z,15.53
2019-02-19T11:28:36.906Z,10.33
2019-02-19T11:31:06.351Z,13.50
2019-02-19T11:33:36.762Z,13.70
2019-02-19T11:36:07.560Z,12.25
2019-02-19T11:38:37.036Z,45.83
2019-02-19T11:41:06.899Z,13.43
2019-02-19T11:43:36.651Z,14.73
2019-02-19T11:46:06.404Z,15.23
2019-02-19T11:48:37.169Z,11.47
2019-02-19T11:51:07.175Z,15.63
2019-02-19T11:53:36.890Z,16.13
2019-02-19T11:56:07.005Z,10.10
2019-02-19T11:58:36.697Z,10.00
2019-02-19T12:01:07.225Z,13.40
2019-02-19T12:03:37.292Z,11.10
2019-02-19T12:06:06.921Z,20.30
2019-02-19T12:08:39.083Z,11.97
2019-02-19T12:11:07.445Z,13.63
2019-02-19T12:13:36.841Z,15.13
2019-02-19T12:16:07.722Z,14.00
2019-02-19T12:18:45.660Z,9.93
2019-02-19T12:21:10.698Z,13.73
2019-02-19T12:23:41.453Z,22.23
2019-02-19T12:26:13.123Z,15.23
2019-02-19T12:28:42.510Z,14.57
2019-02-19T12:31:11.890Z,16.87
2019-02-19T12:33:41.618Z,12.70
2019-02-19T12:36:13.410Z,16.13
2019-02-19T12:38:43.779Z,15.60
2019-02-19T12:41:16.670Z,10.00
2019-02-19T12:43:46.014Z,16.47
2019-02-19T12:46:17.193Z,13.50
2019-02-19T12:48:54.398Z,12.20
2019-02-19T12:51:26.236Z,15.20
2019-02-19T12:53:52.056Z,11.60
2019-02-19T12:56:24.157Z,10.75
2019-02-19T12:58:53.483Z,14.83
2019-02-19T13:01:23.217Z,18.02
2019-02-19T13:03:52.924Z,13.50
2019-02-19T13:06:22.609Z,12.70
2019-02-19T13:08:52.066Z,13.73
2019-02-19T13:11:24.345Z,12.55
2019-02-19T13:13:56.408Z,14.63
2019-02-19T13:16:30.454Z,16.27
2019-02-19T13:19:03.544Z,19.93
2019-02-19T13:21:35.120Z,13.35
2019-02-19T13:24:08.648Z,11.03
2019-02-19T13:26:44.894Z,15.43
2019-02-19T13:29:15.482Z,11.73
2019-02-19T13:31:46.965Z,11.87
2019-02-19T13:34:17.221Z,16.60
2019-02-19T13:36:48.910Z,8.73
2019-02-19T13:39:19.520Z,10.17
2019-02-19T13:41:51.807Z,8.93
2019-02-19T13:44:23.653Z,13.32
2019-02-19T13:46:54.244Z,11.87
2019-02-19T13:49:26.930Z,10.90
2019-02-19T13:52:00.019Z,11.40
2019-02-19T13:54:40.824Z,9.30
2019-02-19T13:57:10.921Z,9.25
2019-02-19T13:59:40.408Z,8.87
2019-02-19T14:02:13.220Z,14.97
2019-02-19T14:04:43.011Z,7.43
2019-02-19T14:07:13.242Z,7.43
2019-02-19T14:09:42.626Z,13.00
2019-02-19T14:12:12.536Z,10.63
2019-02-19T14:14:46.994Z,7.07
2019-02-19T14:17:20.513Z,7.20
2019-02-19T14:19:58.079Z,9.20
2019-02-19T14:22:46.405Z,7.63
2019-02-19T14:25:35.005Z,7.90
2019-02-19T14:28:17.692Z,6.53
2019-02-19T14:31:06.562Z,11.33
2019-02-19T14:33:54.818Z,24.47
2019-02-19T14:36:47.595Z,6.73
2019-02-19T14:39:49.010Z,7.15
2019-02-19T14:42:52.312Z,10.27
2019-02-19T14:45:31.731Z,6.53
2019-02-19T14:48:20.729Z,8.40
2019-02-19T14:51:12.946Z,5.75
2019-02-19T14:53:56.402Z,10.37
2019-02-19T14:56:44.059Z,7.60
2019-02-19T14:59:34.054Z,15.23
2019-02-19T15:02:39.140Z,7.80
2019-02-19T15:05:26.153Z,9.27
2019-02-19T15:08:16.362Z,21.23
2019-02-19T15:11:14.435Z,6.80
2019-02-19T15:13:58.021Z,12.23
2019-02-19T15:16:39.640Z,9.87
2019-02-19T15:19:29.786Z,10.30
2019-02-19T15:22:07.493Z,10.10
2019-02-19T15:24:48.878Z,8.27
2019-02-19T15:27:27.340Z,7.93
2019-02-19T15:30:28.250Z,12.10
2019-02-19T15:33:08.319Z,12.80
2019-02-19T15:36:14.977Z,14.27
2019-02-19T15:38:59.091Z,11.80
2019-02-19T15:41:47.530Z,16.57
2019-02-19T15:44:52.405Z,15.55
2019-02-19T15:47:49.813Z,7.40
2019-02-19T15:50:36.597Z,12.47
2019-02-19T15:53:27.728Z,14.90
2019-02-19T15:56:21.389Z,14.40
2019-02-19T15:59:23.311Z,9.40
2019-02-19T16:02:03.816Z,13.57
2019-02-19T16:05:11.143Z,16.97
2019-02-19T16:08:02.578Z,21.43
2019-02-19T16:11:07.304Z,23.05
2019-02-19T16:13:59.405Z,19.83
2019-02-19T16:16:47.172Z,13.13
2019-02-19T16:19:43.263Z,24.10
2019-02-19T16:22:39.121Z,20.60
2019-02-19T16:25:26.850Z,32.97
2019-02-19T16:28:14.900Z,17.13
2019-02-19T16:31:02.852Z,13.03
2019-02-19T16:33:40.110Z,15.57
2019-02-19T16:36:24.925Z,13.20
2019-02-19T16:39:16.413Z,23.03
2019-02-19T16:42:16.980Z,16.90
2019-02-19T16:44:56.533Z,24.17
2019-02-19T16:47:53.155Z,18.30
2019-02-19T16:50:43.853Z,20.27
2019-02-19T16:53:30.775Z,25.97
2019-02-19T16:56:25.286Z,20.50
2019-02-19T16:59:08.065Z,20.27
2019-02-19T17:01:57.724Z,20.20
2019-02-19T17:04:57.895Z,12.00
2019-02-19T17:07:39.477Z,12.30
2019-02-19T17:10:24.581Z,30.30
2019-02-19T17:13:12.948Z,39.20
2019-02-19T17:16:12.940Z,31.77
2019-02-19T17:19:13.146Z,20.37
2019-02-19T17:21:52.559Z,16.00
2019-02-19T17:24:50.910Z,15.48
2019-02-19T17:27:38.225Z,19.30
2019-02-19T17:30:23.821Z,22.90
2019-02-19T17:33:18.481Z,20.60
2019-02-19T17:36:16.304Z,23.90
2019-02-19T17:39:04.267Z,16.43
2019-02-19T17:41:52.784Z,34.88
2019-02-19T17:44:33.957Z,16.00
2019-02-19T17:47:26.104Z,12.93
2019-02-19T17:50:21.312Z,18.83
2019-02-19T17:53:08.542Z,22.73
2019-02-19T17:55:58.445Z,19.30
2019-02-19T17:58:46.322Z,18.70
2019-02-19T18:01:25.400Z,20.35
2019-02-19T18:04:18.740Z,23.07
2019-02-19T18:07:08.217Z,29.02
2019-02-19T18:10:00.500Z,30.70
2019-02-19T18:13:11.678Z,33.30
2019-02-19T18:15:50.422Z,25.13
2019-02-19T18:18:47.505Z,22.97
2019-02-19T18:21:22.479Z,45.10
2019-02-19T18:23:51.924Z,21.33
2019-02-19T18:26:23.228Z,20.08
2019-02-19T18:28:52.636Z,17.93
2019-02-19T18:31:23.017Z,21.25
2019-02-19T18:33:52.433Z,27.50
2019-02-19T18:36:22.805Z,21.12
2019-02-19T18:38:52.708Z,20.00
2019-02-19T18:41:24.037Z,19.56
2019-02-19T18:43:54.177Z,14.90
2019-02-19T18:46:24.686Z,17.70
2019-02-19T18:48:54.525Z,20.23
2019-02-19T18:51:25.060Z,20.20
2019-02-19T18:53:55.736Z,16.10
2019-02-19T18:56:29.084Z,22.17
2019-02-19T18:58:58.394Z,26.10
2019-02-19T19:01:27.808Z,20.43
2019-02-19T19:03:57.877Z,20.90
2019-02-19T19:06:27.481Z,22.30
2019-02-19T19:08:57.034Z,24.23
2019-02-19T19:11:28.291Z,23.75
2019-02-19T19:13:59.324Z,19.70
2019-02-19T19:16:28.656Z,32.27
2019-02-19T19:18:58.266Z,21.48
2019-02-19T19:21:27.605Z,31.10
2019-02-19T19:23:57.137Z,28.20
2019-02-19T19:26:27.923Z,25.00
2019-02-19T19:28:57.643Z,28.03
2019-02-19T19:31:33.570Z,31.50
2019-02-19T19:34:00.647Z,26.13
2019-02-19T19:36:31.301Z,21.52
2019-02-19T19:39:01.554Z,26.53
2019-02-19T19:41:34.409Z,24.87
2019-02-19T19:44:04.128Z,26.93
2019-02-19T19:46:34.618Z,22.80
2019-02-19T19:49:04.647Z,30.70
2019-02-19T19:51:34.101Z,32.73
2019-02-19T19:54:06.343Z,22.47
2019-02-19T19:56:37.130Z,31.40
2019-02-19T19:59:06.713Z,27.20
2019-02-19T20:01:38.929Z,34.65
2019-02-19T20:04:08.705Z,25.80
2019-02-19T20:06:38.665Z,24.63
2019-02-19T20:09:08.134Z,28.02
2019-02-19T20:11:37.841Z,26.63
2019-02-19T20:14:07.635Z,28.47
2019-02-19T20:16:38.278Z,30.90
2019-02-19T20:19:07.835Z,26.73
2019-02-19T20:21:40.922Z,27.47
2019-02-19T20:24:10.293Z,31.70
2019-02-19T20:26:39.926Z,29.97
2019-02-19T20:29:10.004Z,35.60
2019-02-19T20:31:40.284Z,31.63
2019-02-19T20:34:10.005Z,40.30
2019-02-19T20:36:46.665Z,31.90
2019-02-19T20:39:21.797Z,39.30
2019-02-19T20:41:52.536Z,38.97
2019-02-19T20:44:21.844Z,36.48
2019-02-19T20:46:55.347Z,32.23
2019-02-19T20:49:24.929Z,34.80
2019-02-19T20:51:54.558Z,41.33
2019-02-19T20:54:24.231Z,36.80
2019-02-19T20:56:54.257Z,35.03
2019-02-19T20:59:24.505Z,33.93
2019-02-19T21:01:54.003Z,32.70
2019-02-19T21:04:28.227Z,34.80
2019-02-19T21:06:57.633Z,33.70
2019-02-19T21:09:27.048Z,33.63
2019-02-19T21:11:57.104Z,32.50
2019-02-19T21:14:30.524Z,37.80
2019-02-19T21:17:00.040Z,33.00
2019-02-19T21:19:31.719Z,37.37
2019-02-19T21:22:02.896Z,37.40
2019-02-19T21:24:32.859Z,38.07
2019-02-19T21:27:04.051Z,40.33
2019-02-19T21:29:33.483Z,42.60
2019-02-19T21:32:03.113Z,41.70
2019-02-19T21:34:32.709Z,39.80
2019-02-19T21:37:04.612Z,39.10
2019-02-19T21:39:35.966Z,39.57
2019-02-19T21:42:05.734Z,47.63
2019-02-19T21:44:35.110Z,44.23
2019-02-19T21:47:04.493Z,47.77
2019-02-19T21:49:33.905Z,45.20
2019-02-19T21:52:04.208Z,44.90
2019-02-19T21:54:33.585Z,47.07
2019-02-19T21:57:05.114Z,44.87
2019-02-19T21:59:34.792Z,40.30
2019-02-19T22:02:05.059Z,42.80
2019-02-19T22:04:35.537Z,41.42
2019-02-19T22:07:05.045Z,43.37
2019-02-19T22:09:34.637Z,45.35
2019-02-19T22:12:04.089Z,43.40
2019-02-19T22:14:33.508Z,43.00
2019-02-19T22:17:03.353Z,42.33
2019-02-19T22:19:33.201Z,38.50
2019-02-19T22:22:21.549Z,43.20
2019-02-19T22:24:53.496Z,45.13
2019-02-19T22:27:24.728Z,41.17
2019-02-19T22:29:54.113Z,42.83
2019-02-19T22:32:24.451Z,36.50
2019-02-19T22:34:58.426Z,36.13
2019-02-19T22:37:30.308Z,40.13
2019-02-19T22:40:00.419Z,38.50
2019-02-19T22:42:31.461Z,36.57
2019-02-19T22:45:00.896Z,38.20
2019-02-19T22:47:30.685Z,34.80
2019-02-19T22:50:02.277Z,37.20
2019-02-19T22:52:36.098Z,35.80
2019-02-19T22:55:26.338Z,41.83
2019-02-19T22:57:56.685Z,36.10
2019-02-19T23:00:56.912Z,50.83
2019-02-19T23:03:28.709Z,33.23
2019-02-19T23:05:59.393Z,34.40
2019-02-19T23:08:30.797Z,31.80
2019-02-19T23:11:00.147Z,34.67
2019-02-19T23:13:31.255Z,31.20
2019-02-19T23:16:03.383Z,35.03
2019-02-19T23:18:34.750Z,33.63
2019-02-19T23:21:04.314Z,32.25
2019-02-19T23:23:33.732Z,30.00
2019-02-19T23:26:03.120Z,30.80
2019-02-19T23:28:33.097Z,28.50
2019-02-19T23:31:04.270Z,24.77
2019-02-19T23:33:35.110Z,30.87
2019-02-19T23:36:20.522Z,29.80
2019-02-19T23:38:50.368Z,27.60
2019-02-19T23:41:19.924Z,27.67
2019-02-19T23:43:49.330Z,25.47
2019-02-19T23:46:20.755Z,25.73
2019-02-19T23:48:50.158Z,30.95
2019-02-19T23:51:20.090Z,26.27
2019-02-19T23:53:51.441Z,26.90
2019-02-19T23:56:23.769Z,26.83
2019-02-19T23:58:53.094Z,25.27
